Time;durP1;ratioP1;P1;durP2;ratioP2;P2;SDS_P1;SDS_P2;PMS_P1;PMS_P2;Temp;Humidity;BMP_temperature;BMP_pressure;BME280_temperature;BME280_humidity;BME280_pressure;Samples;Min_cycle;Max_cycle;Signal;HPM_P1;HPM_P2
2023/05/11 00:00:23;;;;;;;4.87;1.60;;;13.50;79.20;;;12.18;62.34;100215.06;10398983;27;97200;-84
2023/05/11 00:05:26;;;;;;;3.13;1.40;;;13.50;79.50;;;12.12;62.61;100207.78;10409412;27;98538;-84
2023/05/11 00:10:29;;;;;;;2.43;1.33;;;13.40;79.80;;;12.08;62.90;100209.16;10423273;27;97213;-84
2023/05/11 00:15:32;;;;;;;2.63;1.40;;;13.40;80.20;;;12.01;62.63;100204.53;10418733;27;96633;-84
2023/05/11 00:20:36;;;;;;;2.57;1.40;;;13.30;80.20;;;12.03;62.76;100221.16;10447786;27;96814;-84
2023/05/11 00:25:39;;;;;;;2.13;1.37;;;13.30;80.30;;;12.01;62.64;100212.50;10404443;27;97445;-84
2023/05/11 00:30:44;;;;;;;2.80;1.40;;;13.30;80.30;;;12.03;62.78;100212.31;10397346;27;99276;-84
2023/05/11 00:35:48;;;;;;;3.60;1.77;;;13.30;80.30;;;12.01;62.87;100201.03;10398853;27;96586;-84
2023/05/11 00:40:51;;;;;;;2.57;1.20;;;13.30;80.50;;;12.03;62.31;100199.84;10422107;27;96926;-84
2023/05/11 00:45:54;;;;;;;3.00;1.60;;;13.30;80.40;;;12.04;62.22;100204.16;10399059;27;97483;-84
2023/05/11 00:51:02;;;;;;;2.03;1.30;;;13.30;80.10;;;12.02;61.69;100200.84;10453620;27;96485;-84
2023/05/11 00:56:06;;;;;;;1.93;1.20;;;13.30;80.00;;;12.03;61.45;100193.69;10429104;27;98292;-84
2023/05/11 01:01:09;;;;;;;3.27;1.53;;;13.40;79.90;;;12.05;61.59;100200.50;10437247;27;98163;-83
2023/05/11 01:06:33;;;;;;;2.80;1.27;;;13.40;79.80;;;12.06;61.42;100201.34;10425030;27;96611;-84
2023/05/11 01:12:35;;;;;;;2.23;1.17;;;13.40;79.90;;;12.01;62.38;100209.03;10422271;27;96519;-84
2023/05/11 01:18:22;;;;;;;2.60;1.53;;;13.30;80.20;;;11.96;62.56;100203.41;10398073;27;96607;-85
2023/05/11 01:23:28;;;;;;;3.20;1.30;;;13.30;80.40;;;11.90;62.71;100198.78;10391145;27;96741;-85
2023/05/11 01:29:05;;;;;;;2.73;1.10;;;13.20;80.50;;;11.81;62.43;100203.31;10439866;27;97744;-85
2023/05/11 01:34:23;;;;;;;2.83;1.50;;;13.10;80.70;;;11.72;62.60;100207.00;10452956;27;96949;-84
2023/05/11 01:39:38;;;;;;;1.90;1.20;;;13.10;80.90;;;11.63;63.40;100200.06;10420575;27;97298;-84
2023/05/11 01:44:47;;;;;;;3.40;1.50;;;13.00;81.40;;;11.56;63.76;100207.91;10452949;27;97400;-84
2023/05/11 01:49:53;;;;;;;2.30;1.30;;;12.90;81.60;;;11.49;63.75;100205.13;10403724;27;97326;-84
2023/05/11 01:54:58;;;;;;;3.23;1.97;;;12.80;81.90;;;11.44;64.20;100206.63;10424539;27;96603;-84
2023/05/11 02:00:03;;;;;;;3.40;1.60;;;12.80;82.10;;;11.33;63.87;100188.38;10423122;27;98084;-84
2023/05/11 02:05:09;;;;;;;3.27;1.33;;;12.70;82.10;;;11.22;63.48;100189.63;10415153;27;96736;-85
2023/05/11 02:10:15;;;;;;;2.53;1.53;;;12.60;82.00;;;11.12;63.24;100188.97;10418612;27;96528;-84
2023/05/11 02:15:21;;;;;;;2.83;1.10;;;12.50;82.10;;;11.05;64.33;100198.66;10407766;27;96910;-84
2023/05/11 02:20:25;;;;;;;2.37;1.30;;;12.40;82.20;;;11.01;64.50;100184.84;10413550;27;98323;-85
2023/05/11 02:25:29;;;;;;;7.20;1.60;;;12.40;82.20;;;11.03;64.66;100187.34;10415378;27;96606;-84
2023/05/11 02:30:42;;;;;;;1.50;0.90;;;12.40;82.40;;;10.97;64.75;100183.53;10435336;27;96968;-84
2023/05/11 02:35:47;;;;;;;2.47;1.30;;;12.40;82.50;;;10.94;64.86;100179.38;10425959;27;96640;-84
2023/05/11 02:40:54;;;;;;;1.93;1.03;;;12.30;82.60;;;10.88;65.63;100180.06;10383545;27;96542;-84
2023/05/11 02:46:16;;;;;;;2.03;1.10;;;12.30;83.10;;;10.82;65.70;100175.44;10422750;27;96618;-84
2023/05/11 02:51:25;;;;;;;2.20;1.03;;;12.20;83.50;;;10.78;66.66;100168.78;10443861;27;98124;-84
2023/05/11 02:56:29;;;;;;;1.80;1.03;;;12.10;83.90;;;10.72;66.92;100170.28;10407909;27;97457;-84
2023/05/11 03:01:32;;;;;;;5.80;1.70;;;12.10;84.40;;;10.69;67.47;100169.81;10394074;27;96801;-84
2023/05/11 03:06:37;;;;;;;5.07;1.40;;;12.00;84.70;;;10.66;67.38;100159.50;10416616;28;96542;-84
2023/05/11 03:11:41;;;;;;;2.90;1.87;;;12.00;85.00;;;10.63;67.58;100175.81;10434600;27;96618;-84
2023/05/11 03:16:44;;;;;;;2.87;1.70;;;12.00;85.20;;;10.60;67.40;100176.97;10419878;27;98481;-84
2023/05/11 03:21:51;;;;;;;2.53;1.60;;;11.90;85.40;;;10.60;67.65;100173.47;10395800;28;96682;-85
2023/05/11 03:26:55;;;;;;;2.07;1.40;;;12.00;85.50;;;10.58;67.96;100183.47;10441020;27;97833;-83
2023/05/11 03:31:59;;;;;;;5.00;1.63;;;11.90;85.80;;;10.53;68.67;100180.47;10424498;27;97262;-85
2023/05/11 03:37:05;;;;;;;2.53;1.60;;;11.90;86.40;;;10.52;69.37;100178.81;10428126;27;96933;-84
2023/05/11 03:42:11;;;;;;;2.53;1.43;;;11.90;86.70;;;10.49;68.75;100173.81;10468010;27;96428;-84
2023/05/11 03:47:16;;;;;;;2.37;1.67;;;11.90;87.00;;;10.55;68.70;100175.81;10399898;27;97474;-84
2023/05/11 03:52:20;;;;;;;2.50;1.43;;;11.90;86.90;;;10.63;68.79;100178.47;10417121;27;96563;-84
2023/05/11 03:57:26;;;;;;;3.20;1.70;;;12.00;87.00;;;10.70;68.53;100185.59;10401426;27;97035;-84
2023/05/11 04:02:30;;;;;;;1.93;1.23;;;12.10;87.10;;;10.82;68.59;100186.06;10420828;27;96943;-84
2023/05/11 04:07:34;;;;;;;3.10;1.60;;;12.20;87.10;;;10.93;68.32;100193.69;10419573;27;98142;-84
2023/05/11 04:12:37;;;;;;;3.70;2.50;;;12.30;87.10;;;10.99;68.68;100195.66;10425677;27;96443;-85
2023/05/11 04:17:40;;;;;;;2.53;1.60;;;12.30;87.30;;;11.11;68.21;100203.28;10380403;27;98482;-86
2023/05/11 04:22:43;;;;;;;3.33;1.90;;;12.40;87.20;;;11.23;67.92;100207.22;10396222;27;96606;-86
2023/05/11 04:27:46;;;;;;;4.53;1.97;;;12.50;87.30;;;11.33;67.54;100193.72;10407811;27;98714;-85
2023/05/11 04:32:49;;;;;;;2.40;1.57;;;12.70;87.20;;;11.45;66.98;100214.44;10397017;27;96633;-85
2023/05/11 04:37:52;;;;;;;2.93;1.90;;;12.80;86.80;;;11.52;66.62;100214.59;10421031;27;96653;-86
2023/05/11 04:42:55;;;;;;;7.27;1.97;;;12.90;86.50;;;11.59;65.80;100214.72;10392634;27;98521;-85
2023/05/11 04:47:58;;;;;;;4.70;2.10;;;12.90;86.10;;;11.59;65.86;100215.56;10425893;27;96567;-87
2023/05/11 04:53:01;;;;;;;3.83;2.47;;;12.90;86.00;;;11.64;65.52;100221.19;10444397;27;96551;-86
2023/05/11 04:58:04;;;;;;;4.57;1.97;;;13.00;86.00;;;11.72;65.21;100231.78;10427745;27;96997;-86
2023/05/11 05:03:07;;;;;;;2.57;1.67;;;13.10;85.80;;;11.80;65.23;100229.06;10427970;27;96604;-86
2023/05/11 05:08:10;;;;;;;4.73;2.33;;;13.20;85.80;;;11.91;63.77;100227.88;10427513;27;96556;-86
2023/05/11 05:13:15;;;;;;;10.30;2.30;;;13.30;85.10;;;12.02;63.63;100222.16;10443143;27;96819;-87
2023/05/11 05:18:18;;;;;;;9.83;2.23;;;13.40;84.70;;;12.15;63.65;100226.06;10394420;27;96855;-85
2023/05/11 05:23:21;;;;;;;5.00;2.30;;;13.50;84.50;;;12.26;62.87;100233.66;10416109;27;96683;-86
2023/05/11 05:28:25;;;;;;;5.57;1.80;;;13.60;84.20;;;12.31;60.88;100236.63;10433278;27;96702;-85
2023/05/11 05:33:28;;;;;;;3.50;1.77;;;13.70;83.30;;;12.39;60.75;100236.53;10430945;27;97050;-85
2023/05/11 05:38:31;;;;;;;3.43;1.60;;;13.80;82.90;;;12.46;60.44;100234.81;10411567;27;96776;-86
2023/05/11 05:43:34;;;;;;;2.77;1.63;;;13.80;82.50;;;12.55;60.23;100240.91;10418946;27;96632;-85
2023/05/11 05:48:37;;;;;;;3.03;1.70;;;13.90;82.10;;;12.54;59.30;100237.44;10426839;27;96889;-83
2023/05/11 05:53:40;;;;;;;4.13;1.80;;;14.00;81.20;;;12.61;58.91;100240.19;10447758;27;96699;-84
2023/05/11 05:58:44;;;;;;;2.60;1.43;;;14.00;80.50;;;12.73;59.22;100235.28;10433084;27;97075;-84
2023/05/11 06:03:47;;;;;;;3.77;1.47;;;14.10;80.60;;;12.91;59.58;100238.44;10400224;27;98099;-84
2023/05/11 06:08:51;;;;;;;7.30;1.87;;;14.20;80.50;;;13.04;56.70;100243.94;10430348;27;96713;-84
2023/05/11 06:13:54;;;;;;;5.70;2.20;;;14.40;79.20;;;13.09;55.29;100249.56;10393916;27;98473;-84
2023/05/11 06:18:56;;;;;;;4.77;1.90;;;14.50;77.60;;;13.15;54.34;100247.19;10424173;27;96760;-84
2023/05/11 06:23:59;;;;;;;7.37;1.93;;;14.50;76.90;;;13.20;54.37;100244.81;10421234;27;96884;-83
2023/05/11 06:29:03;;;;;;;4.07;1.83;;;14.60;76.40;;;13.24;54.30;100248.78;10435173;27;96591;-85
2023/05/11 06:34:07;;;;;;;3.25;1.88;;;14.70;76.10;;;13.29;53.56;100257.06;10382080;27;96712;-85
2023/05/11 06:39:11;;;;;;;4.40;2.37;;;14.70;75.50;;;13.24;52.92;100254.09;10459651;27;96564;-85
2023/05/11 06:44:14;;;;;;;4.10;2.03;;;14.60;74.70;;;13.27;53.94;100261.75;10439852;27;96721;-84
2023/05/11 06:49:17;;;;;;;3.85;2.53;;;14.60;74.50;;;13.35;53.09;100246.47;10459541;27;96422;-85
2023/05/11 06:54:20;;;;;;;4.80;1.90;;;14.70;74.00;;;13.51;53.76;100253.47;10400485;28;96528;-85
2023/05/11 06:59:23;;;;;;;3.80;2.00;;;14.90;74.40;;;13.72;53.16;100251.88;10417423;27;97240;-84
2023/05/11 07:04:28;;;;;;;4.07;2.10;;;15.00;74.10;;;13.82;52.15;100249.75;10419724;27;96657;-85
2023/05/11 07:09:31;;;;;;;4.00;2.28;;;15.20;73.00;;;13.91;51.32;100240.56;10439621;27;96737;-85
2023/05/11 07:14:34;;;;;;;5.15;2.33;;;15.30;72.10;;;13.93;52.28;100235.91;10383150;27;96804;-84
2023/05/11 07:19:37;;;;;;;4.95;2.08;;;15.30;72.50;;;14.11;51.64;100241.63;10404880;27;98208;-86
2023/05/11 07:24:41;;;;;;;3.53;2.22;;;15.50;72.30;;;14.07;51.54;100240.34;10416730;28;96308;-86
2023/05/11 07:29:44;;;;;;;7.18;2.85;;;15.50;71.40;;;14.11;52.09;100246.97;10414634;27;96624;-85
2023/05/11 07:34:47;;;;;;;4.28;2.50;;;15.50;71.90;;;14.37;51.95;100243.75;10420694;27;96562;-85
2023/05/11 07:39:50;;;;;;;4.85;2.75;;;15.70;72.40;;;14.49;51.91;100235.25;10435530;27;96734;-85
2023/05/11 07:44:53;;;;;;;5.40;2.40;;;15.90;71.70;;;14.75;50.56;100237.28;10405421;28;96709;-85
2023/05/11 07:49:56;;;;;;;4.57;2.28;;;16.10;71.00;;;14.91;50.68;100231.66;10401014;27;96480;-86
2023/05/11 07:54:59;;;;;;;6.30;2.47;;;16.30;70.80;;;15.19;49.91;100227.13;10399485;27;96421;-86
2023/05/11 08:00:04;;;;;;;3.70;2.38;;;16.60;70.60;;;15.33;48.73;100229.88;10375985;27;96493;-85
2023/05/11 08:05:08;;;;;;;5.15;2.25;;;16.70;68.70;;;15.43;49.60;100230.34;10418572;27;97324;-86
2023/05/11 08:10:11;;;;;;;4.10;2.08;;;16.80;69.40;;;15.64;48.61;100237.44;10424358;27;96864;-86
2023/05/11 08:15:14;;;;;;;3.08;1.98;;;17.00;68.90;;;15.82;48.33;100236.91;10408312;27;97033;-85
2023/05/11 08:20:17;;;;;;;3.42;2.40;;;17.20;68.50;;;16.01;49.45;100217.38;10418075;27;96507;-85
2023/05/11 08:25:20;;;;;;;4.10;2.33;;;17.30;69.10;;;16.08;47.79;100217.41;10398678;27;96790;-85
2023/05/11 08:30:23;;;;;;;4.85;2.40;;;17.50;68.00;;;16.14;47.49;100217.41;10380617;28;96581;-86
2023/05/11 08:35:26;;;;;;;4.28;2.47;;;17.60;67.20;;;16.27;48.12;100205.88;10384881;27;96703;-86
2023/05/11 08:40:30;;;;;;;5.70;2.30;;;17.60;67.90;;;16.44;47.93;100195.59;10401842;27;96548;-86
2023/05/11 08:45:35;;;;;;;5.18;2.95;;;17.80;67.70;;;16.63;46.72;100189.38;10423013;27;96616;-85
2023/05/11 08:50:40;;;;;;;4.43;2.25;;;18.00;66.70;;;16.82;48.13;100177.81;10402349;27;96521;-86
2023/05/11 08:55:45;;;;;;;5.93;2.38;;;18.10;67.90;;;16.84;47.17;100169.56;10425645;27;97155;-85
2023/05/11 09:00:49;;;;;;;5.03;2.15;;;18.20;66.60;;;17.13;47.60;100162.88;10393683;27;97524;-85
2023/05/11 09:05:52;;;;;;;3.05;1.83;;;18.40;66.90;;;17.48;46.80;100165.25;10379709;27;96714;-85
2023/05/11 09:10:56;;;;;;;5.50;2.15;;;18.70;66.90;;;17.64;45.51;100154.00;10410100;27;96610;-85
2023/05/11 09:15:59;;;;;;;3.88;1.80;;;19.00;65.00;;;17.84;45.00;100143.16;10408014;27;97929;-85
2023/05/11 09:21:02;;;;;;;2.92;2.00;;;19.10;64.70;;;18.22;44.49;100143.09;10413123;27;98165;-85
2023/05/11 09:26:19;;;;;;;2.42;1.55;;;19.40;64.50;;;18.56;44.04;100136.38;10424098;27;96641;-86
2023/05/11 09:31:45;;;;;;;4.28;1.58;;;19.70;63.70;;;18.79;41.50;100125.00;10419771;27;98653;-86
2023/05/11 09:36:55;;;;;;;4.10;1.50;;;20.00;61.10;;;19.13;40.75;100118.22;10435727;27;98386;-85
2023/05/11 09:42:20;;;;;;;5.88;1.88;;;20.30;60.20;;;19.36;39.35;100122.06;10432385;27;97437;-85
2023/05/11 09:47:23;;;;;;;5.20;1.52;;;20.70;59.00;;;19.16;37.85;100122.31;10415236;27;98658;-83
2023/05/11 09:52:26;;;;;;;4.53;1.83;;;20.60;56.70;;;19.01;38.69;100111.91;10394059;27;97645;-85
2023/05/11 09:57:30;;;;;;;3.78;1.48;;;20.40;56.90;;;19.12;37.95;100118.41;10417484;27;98410;-83
2023/05/11 10:02:33;;;;;;;2.53;1.60;;;20.50;56.60;;;19.30;37.98;100104.09;10409261;27;96715;-83
2023/05/11 10:07:37;;;;;;;2.47;1.15;;;20.60;56.90;;;18.97;37.75;100106.16;10391031;27;98392;-84
2023/05/11 10:12:41;;;;;;;3.58;1.65;;;20.40;55.60;;;19.23;38.38;100104.19;10429363;27;97396;-85
2023/05/11 10:17:45;;;;;;;5.20;1.40;;;20.50;57.10;;;19.41;35.68;100111.41;10401721;27;96752;-84
2023/05/11 10:22:52;;;;;;;2.28;1.50;;;20.70;54.50;;;19.50;35.94;100088.50;10426299;27;96443;-84
2023/05/11 10:27:57;;;;;;;8.60;1.88;;;20.80;53.90;;;19.77;35.55;100089.78;10420343;27;98197;-83
2023/05/11 10:33:00;;;;;;;2.45;1.30;;;21.00;53.80;;;19.97;35.07;100077.84;10410220;27;96536;-84
2023/05/11 10:38:05;;;;;;;2.97;1.23;;;21.40;52.80;;;20.22;32.76;100077.66;10415707;27;96550;-84
2023/05/11 10:43:34;;;;;;;3.15;1.33;;;21.60;51.40;;;20.36;33.19;100073.66;10401944;28;96516;-84
2023/05/11 10:48:59;;;;;;;5.72;1.33;;;21.70;50.60;;;20.55;32.00;100074.38;10394362;27;97241;-84
2023/05/11 10:54:35;;;;;;;3.72;1.50;;;21.90;49.60;;;20.65;31.43;100060.31;10384716;27;96539;-83
2023/05/11 10:59:44;;;;;;;5.07;0.90;;;22.10;48.40;;;20.25;30.58;100058.28;10414331;27;98812;-83
2023/05/11 11:04:50;;;;;;;3.72;1.33;;;21.80;47.50;;;20.44;32.11;100054.41;10433342;27;97461;-85
2023/05/11 11:10:03;;;;;;;3.15;1.23;;;21.80;49.20;;;20.40;31.07;100055.16;10424577;27;96793;-85
2023/05/11 11:15:07;;;;;;;3.85;1.00;;;21.80;47.40;;;20.86;31.02;100043.47;10421368;27;96683;-83
2023/05/11 11:20:51;;;;;;;3.65;1.00;;;22.10;48.00;;;21.14;29.45;100033.75;10403869;27;97218;-85
2023/05/11 11:25:54;;;;;;;2.13;0.80;;;22.50;47.00;;;21.28;30.25;100035.09;10436101;27;97230;-85
2023/05/11 11:31:28;;;;;;;2.28;0.90;;;22.60;47.10;;;20.84;30.24;100040.19;10418644;27;97239;-85
2023/05/11 11:37:05;;;;;;;2.28;1.17;;;22.30;46.60;;;20.75;31.33;100026.25;10434944;27;96599;-85
2023/05/11 11:42:11;;;;;;;6.88;1.63;;;22.20;47.80;;;20.50;29.43;100034.59;10461401;27;96761;-86
2023/05/11 11:47:21;;;;;;;4.88;1.10;;;22.10;46.00;;;20.37;30.20;100025.91;10416876;27;96540;-85
2023/05/11 11:52:30;;;;;;;;;;;21.80;46.60;;;20.20;32.35;100029.31;10409531;27;96631;-85
2023/05/11 11:57:33;;;;;;;1.83;1.10;;;21.60;48.70;;;20.28;31.65;100026.28;10418697;27;98224;-84
2023/05/11 12:02:44;;;;;;;3.90;1.08;;;21.70;47.70;;;20.24;30.10;100018.88;10437663;27;97600;-84
2023/05/11 12:07:50;;;;;;;7.53;1.25;;;21.80;46.20;;;20.41;29.83;100017.13;10417302;27;96841;-83
2023/05/11 12:12:56;;;;;;;5.47;1.45;;;21.90;46.00;;;20.71;29.81;100021.56;10438136;27;98293;-84
2023/05/11 12:18:02;;;;;;;2.78;1.30;;;22.10;46.00;;;20.62;29.31;100014.88;10446910;27;96690;-84
2023/05/11 12:23:09;;;;;;;4.50;2.03;;;22.10;45.30;;;20.69;30.47;100004.75;10421127;27;97236;-84
2023/05/11 12:28:12;;;;;;;4.05;1.90;;;22.10;46.20;;;20.61;31.33;100007.84;10430423;27;98897;-84
2023/05/11 12:33:15;;;;;;;2.55;1.65;;;22.10;46.70;;;20.55;30.84;100004.19;10392405;27;96661;-84
2023/05/11 12:38:18;;;;;;;3.00;1.30;;;22.00;46.90;;;20.39;31.59;99994.09;10385187;27;96616;-84
2023/05/11 12:43:22;;;;;;;3.03;1.42;;;21.80;47.50;;;20.37;31.79;99991.66;10423199;27;97149;-84
2023/05/11 12:48:25;;;;;;;1.42;0.90;;;21.80;47.40;;;20.45;31.54;99993.16;10443917;27;96683;-84
2023/05/11 12:53:37;;;;;;;5.45;1.73;;;21.90;47.00;;;20.27;31.82;99994.13;10440408;27;96556;-84
2023/05/11 12:58:40;;;;;;;2.47;1.40;;;21.80;47.20;;;20.05;31.39;99983.13;10420808;27;97913;-85
2023/05/11 13:03:46;;;;;;;4.93;1.15;;;21.60;47.50;;;19.93;33.02;99985.00;10429517;27;97340;-85
2023/05/11 13:08:50;;;;;;;2.60;0.88;;;21.30;48.50;;;20.04;31.94;99974.22;10438189;27;97914;-84
2023/05/11 13:13:55;;;;;;;3.13;1.17;;;21.50;47.50;;;20.11;31.72;99966.00;10391056;27;96965;-84
2023/05/11 13:19:05;;;;;;;3.35;0.85;;;21.60;47.30;;;20.32;32.50;99968.06;10439579;27;97299;-84
2023/05/11 13:24:20;;;;;;;5.82;1.40;;;21.70;48.10;;;20.66;32.46;99959.34;10425629;27;96786;-85
2023/05/11 13:29:23;;;;;;;3.03;1.17;;;22.10;48.00;;;20.72;31.60;99948.41;10430235;27;97165;-86
2023/05/11 13:34:26;;;;;;;3.78;1.20;;;22.20;47.60;;;20.47;31.90;99948.72;10405817;27;98345;-85
2023/05/11 13:39:29;;;;;;;1.80;1.15;;;22.00;47.50;;;20.42;32.18;99943.19;10426860;27;97130;-85
2023/05/11 13:44:34;;;;;;;2.25;1.30;;;21.80;47.80;;;20.48;31.81;99939.56;10422452;27;96667;-84
2023/05/11 13:49:37;;;;;;;2.50;1.30;;;21.90;47.70;;;20.70;32.38;99926.25;10447425;27;96552;-85
2023/05/11 13:54:40;;;;;;;3.80;1.10;;;22.00;48.00;;;20.99;30.68;99931.59;10395737;27;97318;-86
2023/05/11 13:59:43;;;;;;;4.65;1.08;;;22.30;47.10;;;20.94;29.46;99923.44;10408890;27;97224;-82
2023/05/11 14:04:47;;;;;;;3.90;0.85;;;22.40;45.70;;;20.82;29.65;99918.09;10368474;27;96694;-84
2023/05/11 14:09:50;;;;;;;2.03;0.77;;;22.40;44.90;;;20.97;30.35;99918.34;10350657;27;97671;-84
2023/05/11 14:14:53;;;;;;;2.47;1.02;;;22.50;45.60;;;21.08;30.03;99908.56;10409679;27;97357;-84
2023/05/11 14:19:56;;;;;;;2.00;0.95;;;22.90;45.00;;;21.43;28.77;99904.84;10349873;28;98481;-84
2023/05/11 14:25:00;;;;;;;5.28;1.10;;;23.30;44.10;;;21.07;28.39;99910.44;10377471;28;97489;-84
2023/05/11 14:30:05;;;;;;;3.50;1.17;;;23.10;43.10;;;20.77;28.75;99908.00;10383501;27;96661;-83
2023/05/11 14:35:08;;;;;;;1.58;0.80;;;22.60;43.60;;;20.72;29.22;99904.38;10414806;28;98434;-85
2023/05/11 14:40:11;;;;;;;3.97;0.90;;;22.50;43.90;;;20.60;29.12;99903.63;10372282;28;96566;-85
2023/05/11 14:45:15;;;;;;;2.67;1.10;;;22.40;43.80;;;20.41;29.71;99906.47;10408125;28;96581;-84
2023/05/11 14:50:19;;;;;;;3.78;1.00;;;22.10;44.60;;;20.27;30.19;99897.84;10400642;28;96890;-85
2023/05/11 14:55:22;;;;;;;6.63;1.70;;;21.90;45.00;;;20.34;30.04;99894.19;10407192;27;98667;-84
2023/05/11 15:00:25;;;;;;;4.03;1.08;;;21.80;45.40;;;20.37;29.80;99894.50;10356791;28;97417;-85
2023/05/11 15:05:28;;;;;;;3.88;1.33;;;21.90;45.10;;;20.54;29.94;99895.41;10387248;27;97079;-85
2023/05/11 15:10:32;;;;;;;5.18;1.05;;;22.10;45.10;;;20.50;30.06;99888.84;10365269;28;96554;-85
2023/05/11 15:15:35;;;;;;;2.97;1.02;;;22.10;45.00;;;20.66;29.96;99894.56;10382004;28;96719;-85
2023/05/11 15:20:39;;;;;;;7.45;1.30;;;22.20;45.40;;;20.78;29.90;99895.31;10410714;27;96848;-85
2023/05/11 15:25:43;;;;;;;2.13;1.17;;;22.40;45.00;;;20.56;30.36;99903.25;10404039;27;96794;-85
2023/05/11 15:30:47;;;;;;;2.97;1.23;;;22.20;45.10;;;20.39;30.96;99903.19;10386404;28;97207;-85
2023/05/11 15:35:50;;;;;;;4.30;1.20;;;21.90;45.60;;;20.03;30.96;99894.34;10389055;28;97455;-84
2023/05/11 15:40:53;;;;;;;2.90;1.00;;;21.50;45.70;;;19.81;30.89;99901.41;10376482;28;97460;-85
2023/05/11 15:45:58;;;;;;;3.67;0.98;;;21.20;46.10;;;19.69;31.71;99898.72;10394827;28;98206;-84
2023/05/11 15:51:01;;;;;;;2.42;1.02;;;21.00;46.70;;;19.61;31.34;99909.88;10418184;27;96584;-84
2023/05/11 15:56:05;;;;;;;2.00;1.00;;;20.90;46.80;;;19.56;32.02;99908.88;10432756;27;97011;-84
2023/05/11 16:01:07;;;;;;;1.80;0.98;;;20.80;47.10;;;19.48;31.75;99910.03;10405253;28;97160;-85
2023/05/11 16:06:11;;;;;;;1.08;0.80;;;20.70;47.30;;;19.40;32.31;99908.50;10423836;27;96687;-85
2023/05/11 16:11:14;;;;;;;3.63;1.17;;;20.60;47.40;;;19.33;32.84;99915.88;10441356;27;97553;-84
2023/05/11 16:16:17;;;;;;;2.25;0.80;;;20.50;47.90;;;19.27;32.83;99916.81;10414744;27;96470;-84
2023/05/11 16:21:22;;;;;;;1.45;0.90;;;20.50;48.20;;;19.20;33.27;99910.72;10393358;27;96519;-85
2023/05/11 16:26:26;;;;;;;2.42;1.20;;;20.40;48.30;;;19.11;33.49;99909.38;10436964;27;96551;-86
2023/05/11 16:31:29;;;;;;;1.77;1.00;;;20.30;48.60;;;19.02;34.03;99918.88;10461087;27;96415;-84
2023/05/11 16:36:33;;;;;;;3.50;1.17;;;20.20;49.00;;;18.97;34.16;99924.94;10388137;27;96609;-85
2023/05/11 16:41:36;;;;;;;4.75;1.88;;;20.10;49.40;;;18.87;35.16;99930.84;10430002;27;96738;-85
2023/05/11 16:46:39;;;;;;;6.72;2.10;;;20.00;50.10;;;18.77;35.78;99938.66;10435520;27;97584;-85
2023/05/11 16:51:42;;;;;;;1.70;1.20;;;20.00;50.80;;;18.65;35.90;99938.59;10440596;27;96786;-85
2023/05/11 16:56:46;;;;;;;1.73;1.10;;;19.80;51.10;;;18.58;36.04;99945.91;10457309;27;96736;-85
2023/05/11 17:01:50;;;;;;;1.92;0.90;;;19.70;51.40;;;18.55;36.64;99940.19;10445821;27;96539;-85
2023/05/11 17:06:56;;;;;;;1.15;0.88;;;19.70;51.60;;;18.48;36.98;99945.63;10403086;28;96623;-85
2023/05/11 17:11:59;;;;;;;2.42;1.25;;;19.70;51.90;;;18.37;38.51;99955.28;10403813;28;97623;-85
2023/05/11 17:17:03;;;;;;;2.20;0.90;;;19.60;53.50;;;18.16;39.90;99958.41;10403121;27;96702;-85
2023/05/11 17:22:06;;;;;;;4.07;1.73;;;19.40;54.80;;;18.04;40.65;99962.88;10446881;27;96591;-85
2023/05/11 17:27:10;;;;;;;4.93;2.00;;;19.20;55.20;;;17.92;40.06;99960.91;10427810;27;96335;-84
2023/05/11 17:32:13;;;;;;;2.95;1.50;;;19.10;55.30;;;17.84;40.14;99960.38;10430283;27;96515;-85
2023/05/11 17:37:17;;;;;;;1.95;1.20;;;19.00;55.30;;;17.77;40.86;99971.19;10421311;27;96604;-83
2023/05/11 17:42:33;;;;;;;5.07;1.60;;;19.00;55.90;;;17.62;42.40;99971.47;10418402;28;96552;-84
2023/05/11 17:47:36;;;;;;;3.03;1.70;;;18.90;56.90;;;17.45;43.16;99973.06;10424172;27;97533;-84
2023/05/11 17:52:40;;;;;;;2.53;1.60;;;18.70;57.40;;;17.33;43.50;99985.53;10405703;28;96606;-84
2023/05/11 17:57:44;;;;;;;2.17;1.30;;;18.60;58.00;;;17.10;43.87;99991.50;10370447;27;96474;-84
2023/05/11 18:02:47;;;;;;;3.15;1.88;;;18.40;58.50;;;16.89;44.54;100000.69;10451808;27;96729;-84
2023/05/11 18:07:51;;;;;;;5.60;1.55;;;18.20;59.10;;;16.73;44.70;100009.19;10441356;27;96581;-84
2023/05/11 18:12:54;;;;;;;4.25;1.80;;;18.00;59.50;;;16.58;45.45;100017.50;10427732;27;96648;-84
2023/05/11 18:17:57;;;;;;;5.95;3.20;;;17.80;59.90;;;16.43;45.74;100022.25;10394983;27;97596;-83
2023/05/11 18:23:02;;;;;;;2.70;1.33;;;17.70;60.60;;;16.30;45.91;100034.66;10401294;28;96585;-84
2023/05/11 18:28:05;;;;;;;3.03;1.48;;;17.60;60.80;;;16.21;46.09;100033.25;10403547;28;96494;-84
2023/05/11 18:33:08;;;;;;;2.28;1.00;;;17.40;60.90;;;16.13;45.81;100048.72;10406425;27;97078;-85
2023/05/11 18:38:15;;;;;;;2.25;1.02;;;17.40;61.00;;;16.07;46.33;100061.09;10431929;27;96493;-85
2023/05/11 18:43:18;;;;;;;3.22;1.50;;;17.30;61.10;;;15.99;46.59;100066.66;10384101;27;96540;-85
2023/05/11 18:48:21;;;;;;;3.40;1.42;;;17.20;61.40;;;15.83;46.35;100075.09;10401532;28;96413;-85
2023/05/11 18:53:25;;;;;;;6.05;1.52;;;17.10;61.40;;;15.70;46.72;100090.13;10403043;28;96631;-84
2023/05/11 18:58:28;;;;;;;2.30;1.35;;;17.00;61.60;;;15.56;46.50;100103.69;10438107;27;96617;-85
2023/05/11 19:03:31;;;;;;;3.13;1.42;;;16.80;61.50;;;15.47;47.05;100111.91;10440402;27;96661;-84
2023/05/11 19:08:38;;;;;;;2.38;1.27;;;16.70;61.80;;;15.35;47.20;100118.03;10440945;27;96803;-85
2023/05/11 19:13:41;;;;;;;2.58;1.13;;;16.60;62.00;;;15.17;47.87;100123.94;10461036;27;96472;-85
2023/05/11 19:18:45;;;;;;;2.05;0.90;;;16.50;62.40;;;15.00;48.46;100131.50;10440694;27;96560;-85
2023/05/11 19:23:48;;;;;;;4.95;1.20;;;16.30;63.20;;;14.87;49.24;100134.06;10420584;27;96581;-85
2023/05/11 19:28:51;;;;;;;2.28;0.90;;;16.10;63.80;;;14.78;50.07;100143.28;10466772;27;96553;-86
2023/05/11 19:33:58;;;;;;;5.78;1.17;;;16.00;64.20;;;14.67;50.88;100155.34;10449109;27;97128;-86
2023/05/11 19:39:03;;;;;;;3.35;1.67;;;16.00;65.20;;;14.57;51.58;100153.00;10434570;27;96977;-85
2023/05/11 19:44:06;;;;;;;1.67;1.27;;;15.90;65.70;;;14.44;52.66;100160.91;10425280;27;96711;-85
2023/05/11 19:49:10;;;;;;;3.30;1.35;;;15.80;66.60;;;14.29;53.91;100166.38;10423347;27;96844;-85
2023/05/11 19:54:14;;;;;;;1.90;1.40;;;15.60;67.80;;;14.23;54.57;100174.31;10452086;27;98480;-84
2023/05/11 19:59:18;;;;;;;2.25;1.40;;;15.50;68.10;;;13.97;57.08;100175.72;10422730;27;96662;-85
2023/05/11 20:04:21;;;;;;;2.42;1.30;;;15.40;70.70;;;13.73;59.68;100174.22;10426589;27;98784;-87
2023/05/11 20:09:24;;;;;;;3.60;1.83;;;15.10;73.00;;;13.58;60.05;100179.63;10372284;28;98486;-86
2023/05/11 20:14:28;;;;;;;4.30;1.40;;;15.00;73.10;;;13.50;61.42;100186.91;10377931;28;96670;-87
2023/05/11 20:19:31;;;;;;;2.38;1.45;;;14.80;74.60;;;13.40;62.33;100184.53;10359643;28;96575;-85
2023/05/11 20:24:35;;;;;;;3.07;1.30;;;14.70;76.10;;;13.33;63.15;100186.28;10379735;28;96883;-84
2023/05/11 20:29:39;;;;;;;2.00;1.50;;;14.60;76.90;;;13.23;63.71;100191.91;10371938;28;96580;-84
2023/05/11 20:34:42;;;;;;;1.93;1.30;;;14.50;78.00;;;13.14;64.39;100185.00;10364916;27;96449;-84
2023/05/11 20:39:45;;;;;;;2.08;1.30;;;14.50;78.70;;;13.03;65.06;100188.94;10398522;27;98556;-84
2023/05/11 20:44:49;;;;;;;3.37;1.10;;;14.40;79.60;;;12.92;66.03;100184.06;10377382;27;98480;-84
2023/05/11 20:49:53;;;;;;;2.10;1.33;;;14.20;80.10;;;12.90;66.15;100188.75;10373646;28;98532;-84
2023/05/11 20:54:56;;;;;;;2.67;1.35;;;14.20;80.90;;;12.88;67.15;100187.28;10379023;28;96760;-84
2023/05/11 20:59:59;;;;;;;1.60;1.17;;;14.20;80.90;;;12.86;67.66;100192.81;10382633;28;96684;-85